Nelsonville, Wisconsin
Current Conditions -  °F | °C
As of 1:15 PM on Friday 21 Nov 2014 (Local Time) from KSTE Reporting Station
Scattered Clouds Scattered Clouds  
Wind Chill: 13°   Ceiling: Unl
Heat Index: 23°   Visibility: 10mi
Dew Point:   Wind: 9mph
Humidity: 43%   Direction: 190°S
Pressure: 30.22"   Gusts: NA
Location:  44.49°N, 89.31°W
Report Text: KSTE 211915Z AUTO 19008KT 10SM SCT120 M05/M16 A3022 RMK AO2 T10511161
Loading
Personal Weather Stations






























Interactive Weather Map New forecast layout! Learn more

10-Day Weather Forecast

Advertisements
Track Severe Weather on mobile